sensor_id;sensor_type;location;lat;lon;timestamp;pressure;altitude;pressure_sealevel;temperature;humidity
51530;BME280;37613;51.788;21.582;2022-09-09T00:00:34;99928.30;;;11.03;76.73
51530;BME280;37613;51.788;21.582;2022-09-09T00:10:01;99916.95;;;10.98;78.72
51530;BME280;37613;51.788;21.582;2022-09-09T00:14:22;99908.11;;;10.95;80.60
51530;BME280;37613;51.788;21.582;2022-09-09T00:27:32;99892.50;;;10.91;81.13
51530;BME280;37613;51.788;21.582;2022-09-09T00:31:55;99888.77;;;10.90;79.53
51530;BME280;37613;51.788;21.582;2022-09-09T00:36:53;99890.35;;;10.89;81.89
51530;BME280;37613;51.788;21.582;2022-09-09T00:40:55;99898.02;;;10.89;80.45
51530;BME280;37613;51.788;21.582;2022-09-09T00:58:42;99885.77;;;10.87;81.62
51530;BME280;37613;51.788;21.582;2022-09-09T01:03:10;99885.32;;;10.86;82.91
51530;BME280;37613;51.788;21.582;2022-09-09T01:07:24;99880.98;;;10.84;82.80
51530;BME280;37613;51.788;21.582;2022-09-09T01:16:06;99867.33;;;10.79;84.18
51530;BME280;37613;51.788;21.582;2022-09-09T01:20:32;99868.24;;;10.75;85.00
51530;BME280;37613;51.788;21.582;2022-09-09T01:29:35;99883.41;;;10.72;85.16
51530;BME280;37613;51.788;21.582;2022-09-09T01:33:51;99884.60;;;10.72;84.91
51530;BME280;37613;51.788;21.582;2022-09-09T01:38:04;99888.48;;;10.71;85.44
51530;BME280;37613;51.788;21.582;2022-09-09T01:43:01;99885.57;;;10.71;85.59
51530;BME280;37613;51.788;21.582;2022-09-09T01:47:08;99871.25;;;10.72;86.73
51530;BME280;37613;51.788;21.582;2022-09-09T01:51:14;99868.00;;;10.73;85.78
51530;BME280;37613;51.788;21.582;2022-09-09T01:55:37;99873.15;;;10.75;85.81
51530;BME280;37613;51.788;21.582;2022-09-09T02:04:02;99876.89;;;10.82;86.58
51530;BME280;37613;51.788;21.582;2022-09-09T02:08:12;99873.31;;;10.84;87.20
51530;BME280;37613;51.788;21.582;2022-09-09T02:12:27;99871.23;;;10.87;87.17
51530;BME280;37613;51.788;21.582;2022-09-09T02:16:46;99869.88;;;10.90;87.05
51530;BME280;37613;51.788;21.582;2022-09-09T02:20:51;99848.84;;;10.89;86.08
51530;BME280;37613;51.788;21.582;2022-09-09T02:25:07;99839.99;;;10.90;87.52
51530;BME280;37613;51.788;21.582;2022-09-09T02:29:21;99842.29;;;10.87;87.30
51530;BME280;37613;51.788;21.582;2022-09-09T02:33:33;99840.15;;;10.88;86.09
51530;BME280;37613;51.788;21.582;2022-09-09T02:37:54;99845.28;;;10.92;86.01
51530;BME280;37613;51.788;21.582;2022-09-09T02:42:10;99851.90;;;10.94;87.40
51530;BME280;37613;51.788;21.582;2022-09-09T02:46:31;99847.69;;;10.97;85.76
51530;BME280;37613;51.788;21.582;2022-09-09T02:54:54;99844.23;;;11.03;85.53
51530;BME280;37613;51.788;21.582;2022-09-09T02:59:05;99854.74;;;11.04;85.01
51530;BME280;37613;51.788;21.582;2022-09-09T03:03:13;99865.42;;;11.07;86.70
51530;BME280;37613;51.788;21.582;2022-09-09T03:07:20;99866.48;;;11.11;86.83
51530;BME280;37613;51.788;21.582;2022-09-09T03:11:38;99867.17;;;11.13;86.51
51530;BME280;37613;51.788;21.582;2022-09-09T03:15:52;99862.59;;;11.15;85.99
51530;BME280;37613;51.788;21.582;2022-09-09T03:19:58;99865.70;;;11.18;85.52
51530;BME280;37613;51.788;21.582;2022-09-09T03:24:06;99862.14;;;11.20;85.10
51530;BME280;37613;51.788;21.582;2022-09-09T03:28:28;99860.24;;;11.20;86.35
51530;BME280;37613;51.788;21.582;2022-09-09T03:32:45;99858.11;;;11.20;87.31
51530;BME280;37613;51.788;21.582;2022-09-09T03:36:50;99854.63;;;11.20;85.81
51530;BME280;37613;51.788;21.582;2022-09-09T03:41:07;99852.64;;;11.23;86.85
51530;BME280;37613;51.788;21.582;2022-09-09T03:45:26;99857.06;;;11.23;85.86
51530;BME280;37613;51.788;21.582;2022-09-09T03:49:31;99849.33;;;11.19;86.80
51530;BME280;37613;51.788;21.582;2022-09-09T03:53:40;99860.11;;;11.25;86.53
51530;BME280;37613;51.788;21.582;2022-09-09T03:58:06;99859.30;;;11.29;87.68
51530;BME280;37613;51.788;21.582;2022-09-09T04:02:18;99860.39;;;11.31;85.94
51530;BME280;37613;51.788;21.582;2022-09-09T04:06:31;99851.34;;;11.34;86.11
51530;BME280;37613;51.788;21.582;2022-09-09T04:15:26;99848.94;;;11.38;88.09
51530;BME280;37613;51.788;21.582;2022-09-09T04:19:35;99850.11;;;11.39;87.24
51530;BME280;37613;51.788;21.582;2022-09-09T04:24:02;99856.66;;;11.41;87.63
51530;BME280;37613;51.788;21.582;2022-09-09T04:28:12;99853.31;;;11.42;87.38
51530;BME280;37613;51.788;21.582;2022-09-09T04:32:31;99852.91;;;11.45;87.47
51530;BME280;37613;51.788;21.582;2022-09-09T04:37:35;99853.98;;;11.48;87.02
51530;BME280;37613;51.788;21.582;2022-09-09T04:41:38;99862.51;;;11.52;86.62
51530;BME280;37613;51.788;21.582;2022-09-09T04:45:52;99866.41;;;11.56;87.45
51530;BME280;37613;51.788;21.582;2022-09-09T04:50:10;99869.39;;;11.58;88.04
51530;BME280;37613;51.788;21.582;2022-09-09T04:54:23;99867.96;;;11.59;88.15
51530;BME280;37613;51.788;21.582;2022-09-09T04:58:34;99866.86;;;11.60;88.20
51530;BME280;37613;51.788;21.582;2022-09-09T05:02:54;99868.11;;;11.62;88.47
51530;BME280;37613;51.788;21.582;2022-09-09T05:07:05;99872.36;;;11.63;88.16
51530;BME280;37613;51.788;21.582;2022-09-09T05:11:29;99876.70;;;11.64;87.31
51530;BME280;37613;51.788;21.582;2022-09-09T05:15:43;99881.67;;;11.66;89.20
51530;BME280;37613;51.788;21.582;2022-09-09T05:19:58;99880.02;;;11.65;88.41
51530;BME280;37613;51.788;21.582;2022-09-09T05:24:02;99878.81;;;11.65;88.48
51530;BME280;37613;51.788;21.582;2022-09-09T05:28:41;99880.33;;;11.66;87.96
51530;BME280;37613;51.788;21.582;2022-09-09T05:32:48;99882.45;;;11.67;89.67
51530;BME280;37613;51.788;21.582;2022-09-09T05:37:34;99878.89;;;11.66;88.83
51530;BME280;37613;51.788;21.582;2022-09-09T05:46:10;99885.62;;;11.67;88.76
51530;BME280;37613;51.788;21.582;2022-09-09T05:50:42;99885.39;;;11.68;88.01
51530;BME280;37613;51.788;21.582;2022-09-09T05:54:52;99892.25;;;11.70;88.02
51530;BME280;37613;51.788;21.582;2022-09-09T05:59:16;99898.45;;;11.69;88.69
51530;BME280;37613;51.788;21.582;2022-09-09T06:03:23;99904.29;;;11.70;88.42
51530;BME280;37613;51.788;21.582;2022-09-09T06:07:39;99908.38;;;11.71;88.75
51530;BME280;37613;51.788;21.582;2022-09-09T06:11:46;99916.13;;;11.72;87.87
51530;BME280;37613;51.788;21.582;2022-09-09T06:15:59;99914.38;;;11.73;88.61
51530;BME280;37613;51.788;21.582;2022-09-09T06:20:15;99921.75;;;11.72;88.34
51530;BME280;37613;51.788;21.582;2022-09-09T06:24:39;99921.10;;;11.75;88.03
51530;BME280;37613;51.788;21.582;2022-09-09T06:33:07;99927.17;;;11.78;88.59
51530;BME280;37613;51.788;21.582;2022-09-09T06:37:23;99924.15;;;11.80;88.63
51530;BME280;37613;51.788;21.582;2022-09-09T06:41:39;99925.89;;;11.81;88.41
51530;BME280;37613;51.788;21.582;2022-09-09T06:45:52;99926.52;;;11.83;88.94
51530;BME280;37613;51.788;21.582;2022-09-09T06:50:02;99933.76;;;11.87;89.88
51530;BME280;37613;51.788;21.582;2022-09-09T06:54:14;99937.59;;;11.92;89.36
51530;BME280;37613;51.788;21.582;2022-09-09T06:58:35;99938.48;;;11.99;88.68
51530;BME280;37613;51.788;21.582;2022-09-09T07:02:50;99937.39;;;12.04;88.82
51530;BME280;37613;51.788;21.582;2022-09-09T07:06:58;99941.25;;;12.06;89.35
51530;BME280;37613;51.788;21.582;2022-09-09T07:11:11;99942.50;;;12.09;88.51
51530;BME280;37613;51.788;21.582;2022-09-09T07:15:19;99946.55;;;12.15;90.10
51530;BME280;37613;51.788;21.582;2022-09-09T07:19:38;99948.22;;;12.20;89.08
51530;BME280;37613;51.788;21.582;2022-09-09T07:23:50;99955.30;;;12.20;89.20
51530;BME280;37613;51.788;21.582;2022-09-09T07:28:09;99957.41;;;12.20;88.92
51530;BME280;37613;51.788;21.582;2022-09-09T07:32:22;99970.39;;;12.24;90.10
51530;BME280;37613;51.788;21.582;2022-09-09T07:36:31;99981.60;;;12.26;90.11
51530;BME280;37613;51.788;21.582;2022-09-09T07:40:42;99982.77;;;12.30;90.14
51530;BME280;37613;51.788;21.582;2022-09-09T07:45:17;99984.52;;;12.30;90.06
51530;BME280;37613;51.788;21.582;2022-09-09T07:49:28;99980.04;;;12.33;90.70
51530;BME280;37613;51.788;21.582;2022-09-09T07:53:35;99982.36;;;12.37;89.44
51530;BME280;37613;51.788;21.582;2022-09-09T07:57:49;99984.05;;;12.42;89.66
51530;BME280;37613;51.788;21.582;2022-09-09T08:02:05;99982.17;;;12.47;89.27
51530;BME280;37613;51.788;21.582;2022-09-09T08:06:16;99985.79;;;12.56;89.22
51530;BME280;37613;51.788;21.582;2022-09-09T08:10:24;99985.31;;;12.64;90.13
51530;BME280;37613;51.788;21.582;2022-09-09T08:14:34;99986.71;;;12.65;89.39
51530;BME280;37613;51.788;21.582;2022-09-09T08:18:43;99987.99;;;12.65;90.32
51530;BME280;37613;51.788;21.582;2022-09-09T08:22:52;99993.16;;;12.64;91.14
51530;BME280;37613;51.788;21.582;2022-09-09T08:27:15;99994.70;;;12.68;90.43
51530;BME280;37613;51.788;21.582;2022-09-09T08:31:25;100000.77;;;12.71;90.13
51530;BME280;37613;51.788;21.582;2022-09-09T08:35:39;100012.55;;;12.73;90.12
51530;BME280;37613;51.788;21.582;2022-09-09T08:39:46;100017.21;;;12.74;90.19
51530;BME280;37613;51.788;21.582;2022-09-09T08:44:04;100014.74;;;12.75;89.53
51530;BME280;37613;51.788;21.582;2022-09-09T08:48:24;100018.70;;;12.82;89.43
51530;BME280;37613;51.788;21.582;2022-09-09T08:52:39;100024.38;;;12.91;89.44
51530;BME280;37613;51.788;21.582;2022-09-09T08:56:49;100027.56;;;12.97;89.65
51530;BME280;37613;51.788;21.582;2022-09-09T09:14:30;100030.52;;;13.09;90.70
51530;BME280;37613;51.788;21.582;2022-09-09T09:18:43;100031.75;;;13.11;90.93
51530;BME280;37613;51.788;21.582;2022-09-09T09:22:56;100030.41;;;13.10;90.78
51530;BME280;37613;51.788;21.582;2022-09-09T09:31:41;100038.86;;;13.21;90.31
51530;BME280;37613;51.788;21.582;2022-09-09T09:35:50;100046.22;;;13.23;90.67
51530;BME280;37613;51.788;21.582;2022-09-09T09:40:06;100052.31;;;13.25;91.17
51530;BME280;37613;51.788;21.582;2022-09-09T09:44:23;100049.48;;;13.23;90.31
51530;BME280;37613;51.788;21.582;2022-09-09T09:48:37;100053.94;;;13.27;91.66
51530;BME280;37613;51.788;21.582;2022-09-09T09:52:42;100062.42;;;13.28;91.32
51530;BME280;37613;51.788;21.582;2022-09-09T09:56:54;100067.83;;;13.34;90.42
51530;BME280;37613;51.788;21.582;2022-09-09T10:01:02;100068.66;;;13.36;90.53
51530;BME280;37613;51.788;21.582;2022-09-09T10:05:23;100066.50;;;13.37;90.80
51530;BME280;37613;51.788;21.582;2022-09-09T10:09:31;100061.70;;;13.41;90.53
51530;BME280;37613;51.788;21.582;2022-09-09T10:13:42;100061.23;;;13.40;90.60
51530;BME280;37613;51.788;21.582;2022-09-09T10:22:33;100067.60;;;13.37;90.88
51530;BME280;37613;51.788;21.582;2022-09-09T10:26:41;100069.42;;;13.38;91.36
51530;BME280;37613;51.788;21.582;2022-09-09T10:35:09;100078.15;;;13.40;90.93
51530;BME280;37613;51.788;21.582;2022-09-09T10:39:20;100075.60;;;13.40;91.79
51530;BME280;37613;51.788;21.582;2022-09-09T10:56:07;100105.54;;;13.45;91.22
51530;BME280;37613;51.788;21.582;2022-09-09T11:00:18;100116.55;;;13.47;92.23
51530;BME280;37613;51.788;21.582;2022-09-09T11:04:31;100114.41;;;13.46;93.12
51530;BME280;37613;51.788;21.582;2022-09-09T11:08:38;100112.40;;;13.48;92.68
51530;BME280;37613;51.788;21.582;2022-09-09T11:12:47;100109.18;;;13.51;91.47
51530;BME280;37613;51.788;21.582;2022-09-09T11:21:04;100115.89;;;13.49;91.15
51530;BME280;37613;51.788;21.582;2022-09-09T11:25:24;100126.80;;;13.52;91.09
51530;BME280;37613;51.788;21.582;2022-09-09T11:42:37;100133.52;;;13.56;91.17
51530;BME280;37613;51.788;21.582;2022-09-09T11:46:46;100133.27;;;13.60;91.31
51530;BME280;37613;51.788;21.582;2022-09-09T11:51:10;100137.33;;;13.60;91.66
51530;BME280;37613;51.788;21.582;2022-09-09T11:55:28;100138.67;;;13.60;91.36
51530;BME280;37613;51.788;21.582;2022-09-09T11:59:36;100136.48;;;13.64;91.69
51530;BME280;37613;51.788;21.582;2022-09-09T12:03:52;100138.77;;;13.72;91.80
51530;BME280;37613;51.788;21.582;2022-09-09T12:08:16;100141.02;;;13.76;92.44
51530;BME280;37613;51.788;21.582;2022-09-09T12:12:37;100142.50;;;13.83;92.44
51530;BME280;37613;51.788;21.582;2022-09-09T12:16:41;100136.10;;;13.91;91.54
51530;BME280;37613;51.788;21.582;2022-09-09T12:21:33;100138.89;;;13.91;91.38
51530;BME280;37613;51.788;21.582;2022-09-09T12:29:32;100147.10;;;13.89;91.12
51530;BME280;37613;51.788;21.582;2022-09-09T12:33:40;100146.17;;;13.93;90.87
51530;BME280;37613;51.788;21.582;2022-09-09T12:37:53;100152.21;;;13.94;90.38
51530;BME280;37613;51.788;21.582;2022-09-09T12:42:04;100151.58;;;13.93;90.49
51530;BME280;37613;51.788;21.582;2022-09-09T12:46:22;100157.20;;;13.94;90.47
51530;BME280;37613;51.788;21.582;2022-09-09T12:50:42;100151.67;;;13.97;90.44
51530;BME280;37613;51.788;21.582;2022-09-09T12:54:54;100151.88;;;13.94;90.51
51530;BME280;37613;51.788;21.582;2022-09-09T12:59:03;100143.63;;;13.87;90.87
51530;BME280;37613;51.788;21.582;2022-09-09T13:03:16;100132.04;;;13.76;91.43
51530;BME280;37613;51.788;21.582;2022-09-09T13:07:25;100138.20;;;13.78;91.30
51530;BME280;37613;51.788;21.582;2022-09-09T13:11:41;100136.98;;;13.69;90.66
51530;BME280;37613;51.788;21.582;2022-09-09T13:15:56;100142.97;;;13.66;90.73
51530;BME280;37613;51.788;21.582;2022-09-09T13:20:14;100145.58;;;13.61;92.19
51530;BME280;37613;51.788;21.582;2022-09-09T13:24:30;100140.52;;;13.60;91.45
51530;BME280;37613;51.788;21.582;2022-09-09T13:28:38;100137.73;;;13.59;91.11
51530;BME280;37613;51.788;21.582;2022-09-09T13:32:45;100135.27;;;13.59;91.87
51530;BME280;37613;51.788;21.582;2022-09-09T13:37:05;100121.05;;;13.54;91.79
51530;BME280;37613;51.788;21.582;2022-09-09T13:41:36;100126.14;;;13.66;92.34
51530;BME280;37613;51.788;21.582;2022-09-09T13:45:38;100125.55;;;13.80;92.33
51530;BME280;37613;51.788;21.582;2022-09-09T13:49:46;100123.26;;;13.94;91.91
51530;BME280;37613;51.788;21.582;2022-09-09T13:53:51;100124.02;;;14.07;91.93
51530;BME280;37613;51.788;21.582;2022-09-09T13:58:16;100128.84;;;14.13;92.11
51530;BME280;37613;51.788;21.582;2022-09-09T14:02:24;100124.17;;;14.13;92.20
51530;BME280;37613;51.788;21.582;2022-09-09T14:06:27;100124.72;;;14.09;91.58
51530;BME280;37613;51.788;21.582;2022-09-09T14:10:37;100129.73;;;14.08;92.12
51530;BME280;37613;51.788;21.582;2022-09-09T14:14:45;100130.00;;;14.06;91.67
51530;BME280;37613;51.788;21.582;2022-09-09T14:18:55;100137.38;;;14.01;91.29
51530;BME280;37613;51.788;21.582;2022-09-09T14:23:07;100128.75;;;13.99;91.27
51530;BME280;37613;51.788;21.582;2022-09-09T14:27:16;100132.08;;;14.00;91.22
51530;BME280;37613;51.788;21.582;2022-09-09T14:31:31;100135.02;;;14.00;91.53
51530;BME280;37613;51.788;21.582;2022-09-09T14:35:43;100136.77;;;14.00;91.50
51530;BME280;37613;51.788;21.582;2022-09-09T14:39:53;100137.90;;;14.04;91.42
51530;BME280;37613;51.788;21.582;2022-09-09T14:44:03;100138.88;;;14.03;92.31
51530;BME280;37613;51.788;21.582;2022-09-09T14:48:05;100136.91;;;14.02;91.27
51530;BME280;37613;51.788;21.582;2022-09-09T14:52:11;100135.30;;;13.97;91.80
51530;BME280;37613;51.788;21.582;2022-09-09T14:56:15;100139.90;;;13.92;91.05
51530;BME280;37613;51.788;21.582;2022-09-09T15:00:18;100144.14;;;13.85;91.39
51530;BME280;37613;51.788;21.582;2022-09-09T15:04:20;100143.04;;;13.79;91.30
51530;BME280;37613;51.788;21.582;2022-09-09T15:08:25;100141.62;;;13.73;91.46
51530;BME280;37613;51.788;21.582;2022-09-09T15:12:29;100145.39;;;13.69;91.51
51530;BME280;37613;51.788;21.582;2022-09-09T15:16:34;100153.11;;;13.68;91.64
51530;BME280;37613;51.788;21.582;2022-09-09T15:20:36;100152.39;;;13.68;92.04
51530;BME280;37613;51.788;21.582;2022-09-09T15:24:38;100152.00;;;13.67;91.87
51530;BME280;37613;51.788;21.582;2022-09-09T15:28:44;100147.17;;;13.67;91.60
51530;BME280;37613;51.788;21.582;2022-09-09T15:32:53;100138.48;;;13.69;91.97
51530;BME280;37613;51.788;21.582;2022-09-09T15:36:57;100140.47;;;13.70;92.25
51530;BME280;37613;51.788;21.582;2022-09-09T15:41:01;100144.45;;;13.69;91.57
51530;BME280;37613;51.788;21.582;2022-09-09T15:45:06;100143.91;;;13.67;91.79
51530;BME280;37613;51.788;21.582;2022-09-09T15:49:13;100145.37;;;13.65;91.76
51530;BME280;37613;51.788;21.582;2022-09-09T15:53:19;100148.26;;;13.63;92.45
51530;BME280;37613;51.788;21.582;2022-09-09T15:57:21;100138.88;;;13.63;91.77
51530;BME280;37613;51.788;21.582;2022-09-09T16:01:23;100134.92;;;13.62;91.67
51530;BME280;37613;51.788;21.582;2022-09-09T16:05:25;100131.46;;;13.59;92.13
51530;BME280;37613;51.788;21.582;2022-09-09T16:09:27;100126.88;;;13.58;91.90
51530;BME280;37613;51.788;21.582;2022-09-09T16:13:32;100129.11;;;13.57;92.03
51530;BME280;37613;51.788;21.582;2022-09-09T16:17:34;100133.27;;;13.49;92.12
51530;BME280;37613;51.788;21.582;2022-09-09T16:21:40;100133.94;;;13.41;92.39
51530;BME280;37613;51.788;21.582;2022-09-09T16:25:42;100141.04;;;13.38;92.95
51530;BME280;37613;51.788;21.582;2022-09-09T16:29:46;100140.62;;;13.33;93.73
51530;BME280;37613;51.788;21.582;2022-09-09T16:33:59;100142.34;;;13.28;93.68
51530;BME280;37613;51.788;21.582;2022-09-09T16:38:01;100138.35;;;13.25;93.49
51530;BME280;37613;51.788;21.582;2022-09-09T16:42:04;100138.68;;;13.23;93.15
51530;BME280;37613;51.788;21.582;2022-09-09T16:46:13;100140.02;;;13.23;92.50
51530;BME280;37613;51.788;21.582;2022-09-09T16:50:18;100150.90;;;13.23;92.46
51530;BME280;37613;51.788;21.582;2022-09-09T16:54:20;100148.87;;;13.21;92.34
51530;BME280;37613;51.788;21.582;2022-09-09T16:58:24;100154.98;;;13.18;92.69
51530;BME280;37613;51.788;21.582;2022-09-09T17:02:29;100157.98;;;13.12;93.25
51530;BME280;37613;51.788;21.582;2022-09-09T17:06:39;100158.98;;;13.08;93.36
51530;BME280;37613;51.788;21.582;2022-09-09T17:10:42;100160.34;;;13.07;93.12
51530;BME280;37613;51.788;21.582;2022-09-09T17:14:44;100163.80;;;13.10;92.85
51530;BME280;37613;51.788;21.582;2022-09-09T17:18:51;100167.92;;;13.10;92.86
51530;BME280;37613;51.788;21.582;2022-09-09T17:22:53;100171.58;;;13.10;92.96
51530;BME280;37613;51.788;21.582;2022-09-09T17:26:58;100170.96;;;13.08;93.28
51530;BME280;37613;51.788;21.582;2022-09-09T17:31:04;100165.81;;;13.07;92.66
51530;BME280;37613;51.788;21.582;2022-09-09T17:35:13;100169.86;;;13.08;92.59
51530;BME280;37613;51.788;21.582;2022-09-09T17:39:18;100176.85;;;13.07;92.72
51530;BME280;37613;51.788;21.582;2022-09-09T17:43:23;100179.62;;;13.07;93.60
51530;BME280;37613;51.788;21.582;2022-09-09T17:47:33;100176.84;;;13.07;93.46
51530;BME280;37613;51.788;21.582;2022-09-09T17:51:37;100183.04;;;13.08;93.29
51530;BME280;37613;51.788;21.582;2022-09-09T17:55:42;100177.95;;;13.07;93.06
51530;BME280;37613;51.788;21.582;2022-09-09T17:59:52;100177.48;;;13.08;93.29
51530;BME280;37613;51.788;21.582;2022-09-09T18:04:03;100178.59;;;13.08;93.68
51530;BME280;37613;51.788;21.582;2022-09-09T18:08:11;100181.29;;;13.06;94.85
51530;BME280;37613;51.788;21.582;2022-09-09T18:12:18;100188.04;;;13.05;94.14
51530;BME280;37613;51.788;21.582;2022-09-09T18:16:23;100194.53;;;13.06;93.56
51530;BME280;37613;51.788;21.582;2022-09-09T18:20:31;100184.06;;;13.06;93.56
51530;BME280;37613;51.788;21.582;2022-09-09T18:24:39;100185.18;;;13.05;93.95
51530;BME280;37613;51.788;21.582;2022-09-09T18:28:53;100188.55;;;13.03;94.01
51530;BME280;37613;51.788;21.582;2022-09-09T18:33:00;100189.66;;;13.03;93.69
51530;BME280;37613;51.788;21.582;2022-09-09T18:37:05;100189.28;;;13.01;95.05
51530;BME280;37613;51.788;21.582;2022-09-09T18:41:14;100199.21;;;13.00;94.61
51530;BME280;37613;51.788;21.582;2022-09-09T18:45:16;100192.88;;;12.98;94.07
51530;BME280;37613;51.788;21.582;2022-09-09T18:49:27;100184.85;;;12.99;94.41
51530;BME280;37613;51.788;21.582;2022-09-09T18:53:36;100185.82;;;12.97;94.01
51530;BME280;37613;51.788;21.582;2022-09-09T18:57:51;100184.24;;;12.96;94.35
51530;BME280;37613;51.788;21.582;2022-09-09T19:01:59;100183.77;;;12.96;94.90
51530;BME280;37613;51.788;21.582;2022-09-09T19:06:12;100193.83;;;12.98;94.28
51530;BME280;37613;51.788;21.582;2022-09-09T19:10:24;100197.00;;;12.98;93.85
51530;BME280;37613;51.788;21.582;2022-09-09T19:14:42;100199.20;;;12.99;94.29
51530;BME280;37613;51.788;21.582;2022-09-09T19:18:52;100201.27;;;13.01;94.32
51530;BME280;37613;51.788;21.582;2022-09-09T19:22:54;100205.16;;;13.01;94.06
51530;BME280;37613;51.788;21.582;2022-09-09T19:27:02;100204.67;;;13.02;94.28
51530;BME280;37613;51.788;21.582;2022-09-09T19:31:08;100203.17;;;13.01;94.69
51530;BME280;37613;51.788;21.582;2022-09-09T19:35:16;100199.38;;;12.99;94.70
51530;BME280;37613;51.788;21.582;2022-09-09T19:39:25;100197.33;;;12.97;94.70
51530;BME280;37613;51.788;21.582;2022-09-09T19:43:30;100197.16;;;12.97;94.38
51530;BME280;37613;51.788;21.582;2022-09-09T19:47:36;100196.55;;;12.96;94.21
51530;BME280;37613;51.788;21.582;2022-09-09T19:51:43;100198.45;;;12.96;94.00
51530;BME280;37613;51.788;21.582;2022-09-09T19:55:48;100197.84;;;12.95;94.02
51530;BME280;37613;51.788;21.582;2022-09-09T19:59:56;100200.96;;;12.93;94.24
51530;BME280;37613;51.788;21.582;2022-09-09T20:04:04;100195.08;;;12.91;94.05
51530;BME280;37613;51.788;21.582;2022-09-09T20:08:10;100201.88;;;12.87;94.71
51530;BME280;37613;51.788;21.582;2022-09-09T20:12:14;100201.83;;;12.82;94.26
51530;BME280;37613;51.788;21.582;2022-09-09T20:16:20;100203.58;;;12.75;95.83
51530;BME280;37613;51.788;21.582;2022-09-09T20:20:25;100207.23;;;12.74;94.60
51530;BME280;37613;51.788;21.582;2022-09-09T20:24:31;100203.60;;;12.72;94.33
51530;BME280;37613;51.788;21.582;2022-09-09T20:28:34;100202.28;;;12.70;94.39
51530;BME280;37613;51.788;21.582;2022-09-09T20:32:41;100201.50;;;12.67;94.93
51530;BME280;37613;51.788;21.582;2022-09-09T20:36:47;100194.95;;;12.64;94.43
51530;BME280;37613;51.788;21.582;2022-09-09T20:40:51;100195.55;;;12.58;95.45
51530;BME280;37613;51.788;21.582;2022-09-09T20:45:03;100198.21;;;12.52;95.70
51530;BME280;37613;51.788;21.582;2022-09-09T20:49:10;100209.27;;;12.48;95.42
51530;BME280;37613;51.788;21.582;2022-09-09T20:53:15;100209.77;;;12.46;95.00
51530;BME280;37613;51.788;21.582;2022-09-09T20:57:22;100205.66;;;12.43;95.87
51530;BME280;37613;51.788;21.582;2022-09-09T21:01:29;100210.67;;;12.41;95.57
51530;BME280;37613;51.788;21.582;2022-09-09T21:05:39;100201.83;;;12.37;95.64
51530;BME280;37613;51.788;21.582;2022-09-09T21:09:43;100203.92;;;12.33;96.09
51530;BME280;37613;51.788;21.582;2022-09-09T21:13:59;100207.83;;;12.30;95.83
51530;BME280;37613;51.788;21.582;2022-09-09T21:18:05;100208.14;;;12.31;95.34
51530;BME280;37613;51.788;21.582;2022-09-09T21:22:12;100204.15;;;12.33;95.02
51530;BME280;37613;51.788;21.582;2022-09-09T21:26:31;100202.48;;;12.34;94.99
51530;BME280;37613;51.788;21.582;2022-09-09T21:30:45;100206.63;;;12.32;94.90
51530;BME280;37613;51.788;21.582;2022-09-09T21:34:50;100210.53;;;12.27;95.87
51530;BME280;37613;51.788;21.582;2022-09-09T21:39:05;100200.27;;;12.21;95.83
51530;BME280;37613;51.788;21.582;2022-09-09T21:43:17;100203.45;;;12.19;95.25
51530;BME280;37613;51.788;21.582;2022-09-09T21:47:29;100206.96;;;12.17;94.95
51530;BME280;37613;51.788;21.582;2022-09-09T21:51:38;100207.20;;;12.16;95.71
51530;BME280;37613;51.788;21.582;2022-09-09T21:55:49;100204.60;;;12.14;95.21
51530;BME280;37613;51.788;21.582;2022-09-09T22:00:02;100204.84;;;12.11;95.64
51530;BME280;37613;51.788;21.582;2022-09-09T22:04:12;100203.75;;;12.10;96.43
51530;BME280;37613;51.788;21.582;2022-09-09T22:08:19;100207.96;;;12.09;95.76
51530;BME280;37613;51.788;21.582;2022-09-09T22:12:31;100215.40;;;12.09;95.83
51530;BME280;37613;51.788;21.582;2022-09-09T22:26:35;100213.38;;;12.06;97.03
51530;BME280;37613;51.788;21.582;2022-09-09T22:30:41;100212.25;;;12.05;96.16
51530;BME280;37613;51.788;21.582;2022-09-09T22:34:48;100210.51;;;12.05;95.86
51530;BME280;37613;51.788;21.582;2022-09-09T22:39:06;100211.07;;;12.06;96.23
51530;BME280;37613;51.788;21.582;2022-09-09T22:43:14;100206.63;;;12.05;96.37
51530;BME280;37613;51.788;21.582;2022-09-09T22:47:19;100210.35;;;12.05;95.97
51530;BME280;37613;51.788;21.582;2022-09-09T22:51:29;100212.18;;;12.04;96.42
51530;BME280;37613;51.788;21.582;2022-09-09T22:55:52;100215.20;;;12.03;95.88
51530;BME280;37613;51.788;21.582;2022-09-09T22:59:59;100213.79;;;12.02;95.64
51530;BME280;37613;51.788;21.582;2022-09-09T23:04:07;100209.20;;;12.01;95.51
51530;BME280;37613;51.788;21.582;2022-09-09T23:08:18;100205.02;;;11.98;95.84
51530;BME280;37613;51.788;21.582;2022-09-09T23:12:24;100192.11;;;11.96;96.27
51530;BME280;37613;51.788;21.582;2022-09-09T23:16:34;100184.29;;;11.94;95.77
51530;BME280;37613;51.788;21.582;2022-09-09T23:20:45;100184.05;;;11.93;95.93
51530;BME280;37613;51.788;21.582;2022-09-09T23:30:20;100174.48;;;11.93;95.75
51530;BME280;37613;51.788;21.582;2022-09-09T23:34:39;100175.66;;;11.92;95.66
51530;BME280;37613;51.788;21.582;2022-09-09T23:38:49;100177.02;;;11.91;95.27
51530;BME280;37613;51.788;21.582;2022-09-09T23:42:54;100179.64;;;11.91;96.16
51530;BME280;37613;51.788;21.582;2022-09-09T23:47:08;100171.31;;;11.91;96.41
51530;BME280;37613;51.788;21.582;2022-09-09T23:51:17;100169.19;;;11.91;96.19
51530;BME280;37613;51.788;21.582;2022-09-09T23:55:29;100168.15;;;11.91;95.63